Etusivu
METAR-TAF:

METAR-TAF

Lentoasemat :

Pruniers

Romorantin, Ranska

Leveyspiiri: 47-19N, Pituuspiiri: 001-41E, korkeus merenpinnasta: 85 m

Tämänhetkinen sää

Tämä raportti tehtiin 26 minuuttia sitten, kello 03.30 UTC
Tuuli 1 kn eri suunnista
Lämpötila 6°C
Kosteus 87%
Ilmanpaine 1027 hPa
Näkyvyys: 7000 m

METAR: LFYR 210330Z AUTO VRB01KT 7000 NSC 06/04 Q1027

Aika: 05:56 (03:56 UTC)


TAF: puuttuu

Säähavainnot ja -ennusteet yli 4000 lentoasemalta (METAR- ja TAF-raportit).

Käytössä olevat sääasemat on merkitty karttaan keltaisilla ja punaisilla pisteillä.

Aseta hiiri pisteen päälle nähdäksesi sääaseman nimen.

Klikkaa sitten nähdäksesi säähavainnot ja -ennusteet.

Kartan vaihtaminen: klikkaa mustalla rastilla varustettuja vihreitä pisteitä, niin voit zoomata sisään; viivalla varustettua vihreää pistettä, niin voit zoomata ulos tai vihreitä nuolia, niin pääset viereisille kartoille.


METAR-TAF: